sensor_id;sensor_type;location;lat;lon;timestamp;pressure;altitude;pressure_sealevel;temperature;humidity
70976;BME280;58635;51.198;6.010;2023-04-29T00:00:50;101234.38;;;16.12;58.26
70976;BME280;58635;51.198;6.010;2023-04-29T00:03:15;101233.78;;;16.09;58.37
70976;BME280;58635;51.198;6.010;2023-04-29T00:05:41;101236.38;;;16.09;58.25
70976;BME280;58635;51.198;6.010;2023-04-29T00:08:07;101235.00;;;16.07;58.10
70976;BME280;58635;51.198;6.010;2023-04-29T00:10:32;101242.84;;;16.07;58.19
70976;BME280;58635;51.198;6.010;2023-04-29T00:12:57;101237.84;;;16.05;58.18
70976;BME280;58635;51.198;6.010;2023-04-29T00:15:23;101243.50;;;16.02;58.29
70976;BME280;58635;51.198;6.010;2023-04-29T00:17:48;101244.97;;;15.98;58.20
70976;BME280;58635;51.198;6.010;2023-04-29T00:20:14;101252.19;;;15.96;58.14
70976;BME280;58635;51.198;6.010;2023-04-29T00:22:40;101251.84;;;15.93;58.23
70976;BME280;58635;51.198;6.010;2023-04-29T00:25:06;101254.66;;;15.91;58.22
70976;BME280;58635;51.198;6.010;2023-04-29T00:27:31;101258.13;;;15.85;58.10
70976;BME280;58635;51.198;6.010;2023-04-29T00:29:57;101264.78;;;15.81;58.16
70976;BME280;58635;51.198;6.010;2023-04-29T00:32:23;101262.84;;;15.76;58.29
70976;BME280;58635;51.198;6.010;2023-04-29T00:34:48;101264.66;;;15.76;58.37
70976;BME280;58635;51.198;6.010;2023-04-29T00:37:13;101271.69;;;15.75;58.47
70976;BME280;58635;51.198;6.010;2023-04-29T00:39:39;101271.88;;;15.74;58.38
70976;BME280;58635;51.198;6.010;2023-04-29T00:42:04;101273.31;;;15.70;58.41
70976;BME280;58635;51.198;6.010;2023-04-29T00:44:30;101265.50;;;15.70;58.36
70976;BME280;58635;51.198;6.010;2023-04-29T00:46:56;101271.94;;;15.67;58.47
70976;BME280;58635;51.198;6.010;2023-04-29T00:49:22;101275.00;;;15.64;58.55
70976;BME280;58635;51.198;6.010;2023-04-29T00:51:47;101275.22;;;15.63;58.66
70976;BME280;58635;51.198;6.010;2023-04-29T00:54:14;101270.00;;;15.63;58.52
70976;BME280;58635;51.198;6.010;2023-04-29T00:56:40;101269.38;;;15.61;58.84
70976;BME280;58635;51.198;6.010;2023-04-29T00:59:08;101267.78;;;15.60;58.81
70976;BME280;58635;51.198;6.010;2023-04-29T01:01:35;101277.41;;;15.59;58.69
70976;BME280;58635;51.198;6.010;2023-04-29T01:04:01;101272.41;;;15.58;58.86
70976;BME280;58635;51.198;6.010;2023-04-29T01:09:36;101282.03;;;15.57;58.99
70976;BME280;58635;51.198;6.010;2023-04-29T01:12:20;101284.06;;;15.55;59.05
70976;BME280;58635;51.198;6.010;2023-04-29T01:15:21;101291.31;;;15.53;58.96
70976;BME280;58635;51.198;6.010;2023-04-29T01:17:58;101290.28;;;15.54;59.08
70976;BME280;58635;51.198;6.010;2023-04-29T01:20:25;101288.13;;;15.51;59.07
70976;BME280;58635;51.198;6.010;2023-04-29T01:22:51;101285.91;;;15.48;59.21
70976;BME280;58635;51.198;6.010;2023-04-29T01:25:17;101293.94;;;15.46;59.03
70976;BME280;58635;51.198;6.010;2023-04-29T01:32:57;101298.81;;;15.43;58.99
70976;BME280;58635;51.198;6.010;2023-04-29T01:38:16;101303.66;;;15.39;58.71
70976;BME280;58635;51.198;6.010;2023-04-29T01:40:49;101300.66;;;15.36;58.79
70976;BME280;58635;51.198;6.010;2023-04-29T01:43:22;101308.25;;;15.37;58.75
70976;BME280;58635;51.198;6.010;2023-04-29T01:45:51;101307.44;;;15.37;58.72
70976;BME280;58635;51.198;6.010;2023-04-29T01:48:18;101310.50;;;15.34;58.70
70976;BME280;58635;51.198;6.010;2023-04-29T01:50:44;101310.91;;;15.31;58.74
70976;BME280;58635;51.198;6.010;2023-04-29T01:53:10;101316.56;;;15.28;58.78
70976;BME280;58635;51.198;6.010;2023-04-29T01:55:35;101315.59;;;15.22;59.02
70976;BME280;58635;51.198;6.010;2023-04-29T01:58:01;101323.47;;;15.15;59.25
70976;BME280;58635;51.198;6.010;2023-04-29T02:00:26;101327.47;;;15.11;59.32
70976;BME280;58635;51.198;6.010;2023-04-29T02:02:51;101324.50;;;15.08;59.35
70976;BME280;58635;51.198;6.010;2023-04-29T02:05:18;101322.50;;;15.03;59.46
70976;BME280;58635;51.198;6.010;2023-04-29T02:07:44;101320.31;;;15.00;59.58
70976;BME280;58635;51.198;6.010;2023-04-29T02:10:09;101326.53;;;14.99;59.58
70976;BME280;58635;51.198;6.010;2023-04-29T02:12:36;101335.56;;;14.97;59.64
70976;BME280;58635;51.198;6.010;2023-04-29T02:15:01;101334.41;;;14.93;59.79
70976;BME280;58635;51.198;6.010;2023-04-29T02:17:26;101332.63;;;14.86;59.92
70976;BME280;58635;51.198;6.010;2023-04-29T02:19:52;101342.44;;;14.84;59.97
70976;BME280;58635;51.198;6.010;2023-04-29T02:22:19;101343.06;;;14.80;59.91
70976;BME280;58635;51.198;6.010;2023-04-29T02:24:45;101347.88;;;14.76;60.20
70976;BME280;58635;51.198;6.010;2023-04-29T02:27:10;101349.09;;;14.74;60.00
70976;BME280;58635;51.198;6.010;2023-04-29T02:29:36;101350.75;;;14.68;60.05
70976;BME280;58635;51.198;6.010;2023-04-29T02:32:01;101356.13;;;14.67;60.14
70976;BME280;58635;51.198;6.010;2023-04-29T02:34:26;101354.53;;;14.66;60.22
70976;BME280;58635;51.198;6.010;2023-04-29T02:36:52;101359.75;;;14.66;60.19
70976;BME280;58635;51.198;6.010;2023-04-29T02:39:17;101357.75;;;14.61;59.93
70976;BME280;58635;51.198;6.010;2023-04-29T02:41:44;101361.59;;;14.58;60.17
70976;BME280;58635;51.198;6.010;2023-04-29T02:44:10;101371.78;;;14.60;59.91
70976;BME280;58635;51.198;6.010;2023-04-29T02:46:36;101368.59;;;14.58;59.92
70976;BME280;58635;51.198;6.010;2023-04-29T02:49:03;101371.19;;;14.58;59.95
70976;BME280;58635;51.198;6.010;2023-04-29T02:51:30;101373.81;;;14.58;59.92
70976;BME280;58635;51.198;6.010;2023-04-29T02:53:55;101378.22;;;14.57;59.85
70976;BME280;58635;51.198;6.010;2023-04-29T02:56:21;101370.78;;;14.54;59.76
70976;BME280;58635;51.198;6.010;2023-04-29T02:58:47;101381.63;;;14.51;59.94
70976;BME280;58635;51.198;6.010;2023-04-29T03:01:13;101376.81;;;14.48;59.95
70976;BME280;58635;51.198;6.010;2023-04-29T03:03:38;101385.06;;;14.45;59.92
70976;BME280;58635;51.198;6.010;2023-04-29T03:06:04;101390.41;;;14.44;59.91
70976;BME280;58635;51.198;6.010;2023-04-29T03:08:29;101390.63;;;14.42;59.77
70976;BME280;58635;51.198;6.010;2023-04-29T03:10:55;101386.41;;;14.41;59.71
70976;BME280;58635;51.198;6.010;2023-04-29T03:13:20;101389.00;;;14.41;59.66
70976;BME280;58635;51.198;6.010;2023-04-29T03:15:45;101390.81;;;14.41;59.58
70976;BME280;58635;51.198;6.010;2023-04-29T03:18:11;101394.81;;;14.43;59.59
70976;BME280;58635;51.198;6.010;2023-04-29T03:20:36;101394.00;;;14.43;59.64
70976;BME280;58635;51.198;6.010;2023-04-29T03:23:02;101391.41;;;14.43;59.47
70976;BME280;58635;51.198;6.010;2023-04-29T03:25:27;101400.81;;;14.44;59.50
70976;BME280;58635;51.198;6.010;2023-04-29T03:27:53;101399.22;;;14.43;59.58
70976;BME280;58635;51.198;6.010;2023-04-29T03:30:18;101407.03;;;14.43;59.76
70976;BME280;58635;51.198;6.010;2023-04-29T03:32:44;101407.03;;;14.43;59.50
70976;BME280;58635;51.198;6.010;2023-04-29T03:35:09;101405.22;;;14.43;59.42
70976;BME280;58635;51.198;6.010;2023-04-29T03:37:36;101409.63;;;14.43;59.40
70976;BME280;58635;51.198;6.010;2023-04-29T03:40:01;101411.44;;;14.42;59.57
70976;BME280;58635;51.198;6.010;2023-04-29T03:42:27;101409.25;;;14.39;59.74
70976;BME280;58635;51.198;6.010;2023-04-29T03:44:52;101403.03;;;14.40;59.59
70976;BME280;58635;51.198;6.010;2023-04-29T03:47:17;101414.25;;;14.41;59.67
70976;BME280;58635;51.198;6.010;2023-04-29T03:49:43;101417.06;;;14.39;59.68
70976;BME280;58635;51.198;6.010;2023-04-29T03:52:08;101414.66;;;14.38;59.69
70976;BME280;58635;51.198;6.010;2023-04-29T03:54:34;101412.25;;;14.36;59.79
70976;BME280;58635;51.198;6.010;2023-04-29T03:56:59;101421.28;;;14.33;59.79
70976;BME280;58635;51.198;6.010;2023-04-29T03:59:25;101422.28;;;14.32;60.05
70976;BME280;58635;51.198;6.010;2023-04-29T04:01:50;101419.25;;;14.29;60.11
70976;BME280;58635;51.198;6.010;2023-04-29T04:04:18;101424.06;;;14.25;60.24
70976;BME280;58635;51.198;6.010;2023-04-29T04:06:43;101421.69;;;14.24;60.31
70976;BME280;58635;51.198;6.010;2023-04-29T04:09:15;101419.28;;;14.22;60.44
70976;BME280;58635;51.198;6.010;2023-04-29T04:11:40;101421.88;;;14.22;60.76
70976;BME280;58635;51.198;6.010;2023-04-29T04:14:06;101425.50;;;14.21;60.83
70976;BME280;58635;51.198;6.010;2023-04-29T04:16:32;101428.88;;;14.22;60.89
70976;BME280;58635;51.198;6.010;2023-04-29T04:18:57;101433.28;;;14.21;60.84
70976;BME280;58635;51.198;6.010;2023-04-29T04:21:23;101436.69;;;14.22;61.03
70976;BME280;58635;51.198;6.010;2023-04-29T04:23:49;101436.69;;;14.22;61.19
70976;BME280;58635;51.198;6.010;2023-04-29T04:26:15;101450.50;;;14.22;61.37
70976;BME280;58635;51.198;6.010;2023-04-29T04:28:40;101441.69;;;14.23;61.48
70976;BME280;58635;51.198;6.010;2023-04-29T04:31:06;101444.09;;;14.25;61.40
70976;BME280;58635;51.198;6.010;2023-04-29T04:33:32;101452.91;;;14.24;61.44
70976;BME280;58635;51.198;6.010;2023-04-29T04:35:58;101454.69;;;14.23;61.45
70976;BME280;58635;51.198;6.010;2023-04-29T04:38:24;101457.31;;;14.23;61.49
70976;BME280;58635;51.198;6.010;2023-04-29T04:40:50;101464.09;;;14.24;61.51
70976;BME280;58635;51.198;6.010;2023-04-29T04:43:16;101460.72;;;14.24;61.56
70976;BME280;58635;51.198;6.010;2023-04-29T04:45:42;101465.91;;;14.24;61.46
70976;BME280;58635;51.198;6.010;2023-04-29T04:48:07;101464.09;;;14.24;61.57
70976;BME280;58635;51.198;6.010;2023-04-29T04:50:32;101474.50;;;14.24;61.61
70976;BME280;58635;51.198;6.010;2023-04-29T04:52:58;101479.72;;;14.24;61.51
70976;BME280;58635;51.198;6.010;2023-04-29T04:55:23;101473.72;;;14.24;61.57
70976;BME280;58635;51.198;6.010;2023-04-29T04:57:49;101480.53;;;14.25;61.51
70976;BME280;58635;51.198;6.010;2023-04-29T05:00:15;101484.13;;;14.24;61.56
70976;BME280;58635;51.198;6.010;2023-04-29T05:02:40;101496.13;;;14.25;61.59
70976;BME280;58635;51.198;6.010;2023-04-29T05:05:06;101492.72;;;14.24;61.51
70976;BME280;58635;51.198;6.010;2023-04-29T05:07:32;101488.31;;;14.25;61.59
70976;BME280;58635;51.198;6.010;2023-04-29T05:10:00;101493.31;;;14.26;61.66
70976;BME280;58635;51.198;6.010;2023-04-29T05:12:27;101496.72;;;14.27;61.73
70976;BME280;58635;51.198;6.010;2023-04-29T05:14:55;101494.31;;;14.25;61.80
70976;BME280;58635;51.198;6.010;2023-04-29T05:17:20;101503.72;;;14.26;61.82
70976;BME280;58635;51.198;6.010;2023-04-29T05:19:46;101507.94;;;14.27;61.77
70976;BME280;58635;51.198;6.010;2023-04-29T05:22:11;101502.72;;;14.27;61.78
70976;BME280;58635;51.198;6.010;2023-04-29T05:24:36;101510.53;;;14.27;61.81
70976;BME280;58635;51.198;6.010;2023-04-29T05:27:02;101512.34;;;14.27;61.65
70976;BME280;58635;51.198;6.010;2023-04-29T05:29:28;101514.75;;;14.28;61.78
70976;BME280;58635;51.198;6.010;2023-04-29T05:31:54;101516.34;;;14.29;61.89
70976;BME280;58635;51.198;6.010;2023-04-29T05:34:19;101519.53;;;14.31;61.77
70976;BME280;58635;51.198;6.010;2023-04-29T05:36:45;101519.53;;;14.31;61.74
70976;BME280;58635;51.198;6.010;2023-04-29T05:39:10;101518.94;;;14.29;61.61
70976;BME280;58635;51.198;6.010;2023-04-29T05:41:36;101528.34;;;14.30;61.54
70976;BME280;58635;51.198;6.010;2023-04-29T05:44:01;101531.16;;;14.29;61.48
70976;BME280;58635;51.198;6.010;2023-04-29T05:46:27;101535.75;;;14.27;61.62
70976;BME280;58635;51.198;6.010;2023-04-29T05:48:52;101536.56;;;14.27;61.62
70976;BME280;58635;51.198;6.010;2023-04-29T05:51:17;101542.97;;;14.25;61.47
70976;BME280;58635;51.198;6.010;2023-04-29T05:53:43;101542.38;;;14.23;61.62
70976;BME280;58635;51.198;6.010;2023-04-29T05:56:08;101552.97;;;14.21;61.76
70976;BME280;58635;51.198;6.010;2023-04-29T05:58:34;101551.34;;;14.20;61.64
70976;BME280;58635;51.198;6.010;2023-04-29T06:01:00;101556.97;;;14.17;61.75
70976;BME280;58635;51.198;6.010;2023-04-29T06:03:25;101564.16;;;14.15;61.70
70976;BME280;58635;51.198;6.010;2023-04-29T06:05:51;101563.38;;;14.15;61.70
70976;BME280;58635;51.198;6.010;2023-04-29T06:08:17;101568.34;;;14.16;61.81
70976;BME280;58635;51.198;6.010;2023-04-29T06:10:43;101575.97;;;14.18;61.87
70976;BME280;58635;51.198;6.010;2023-04-29T06:13:09;101573.56;;;14.16;61.72
70976;BME280;58635;51.198;6.010;2023-04-29T06:15:34;101574.56;;;14.15;61.68
70976;BME280;58635;51.198;6.010;2023-04-29T06:18:00;101583.16;;;14.16;61.89
70976;BME280;58635;51.198;6.010;2023-04-29T06:20:25;101579.78;;;14.15;61.86
70976;BME280;58635;51.198;6.010;2023-04-29T06:22:51;101581.56;;;14.15;61.84
70976;BME280;58635;51.198;6.010;2023-04-29T06:25:16;101582.78;;;14.19;61.82
70976;BME280;58635;51.198;6.010;2023-04-29T06:27:42;101587.41;;;14.23;61.82
70976;BME280;58635;51.198;6.010;2023-04-29T06:30:07;101582.59;;;14.27;61.66
70976;BME280;58635;51.198;6.010;2023-04-29T06:32:33;101601.00;;;14.32;61.71
70976;BME280;58635;51.198;6.010;2023-04-29T06:34:58;101599.84;;;14.34;61.67
70976;BME280;58635;51.198;6.010;2023-04-29T06:37:24;101595.22;;;14.37;61.70
70976;BME280;58635;51.198;6.010;2023-04-29T06:39:49;101599.81;;;14.41;61.44
70976;BME280;58635;51.198;6.010;2023-04-29T06:42:15;101611.63;;;14.44;61.45
70976;BME280;58635;51.198;6.010;2023-04-29T06:44:40;101616.69;;;14.45;61.51
70976;BME280;58635;51.198;6.010;2023-04-29T06:47:06;101618.63;;;14.43;61.23
70976;BME280;58635;51.198;6.010;2023-04-29T06:49:31;101629.25;;;14.42;61.26
70976;BME280;58635;51.198;6.010;2023-04-29T06:51:56;101626.06;;;14.40;61.18
70976;BME280;58635;51.198;6.010;2023-04-29T06:54:23;101628.44;;;14.41;61.33
70976;BME280;58635;51.198;6.010;2023-04-29T06:56:49;101631.06;;;14.41;61.19
70976;BME280;58635;51.198;6.010;2023-04-29T06:59:14;101626.06;;;14.40;61.21
70976;BME280;58635;51.198;6.010;2023-04-29T07:01:40;101634.66;;;14.40;61.28
70976;BME280;58635;51.198;6.010;2023-04-29T07:04:05;101641.66;;;14.40;61.19
70976;BME280;58635;51.198;6.010;2023-04-29T07:06:31;101639.88;;;14.40;61.35
70976;BME280;58635;51.198;6.010;2023-04-29T07:08:57;101637.25;;;14.40;61.27
70976;BME280;58635;51.198;6.010;2023-04-29T07:11:22;101644.28;;;14.40;61.24
70976;BME280;58635;51.198;6.010;2023-04-29T07:13:51;101644.88;;;14.42;61.07
70976;BME280;58635;51.198;6.010;2023-04-29T07:16:17;101645.88;;;14.41;61.34
70976;BME280;58635;51.198;6.010;2023-04-29T07:18:44;101657.28;;;14.40;61.18
70976;BME280;58635;51.198;6.010;2023-04-29T07:21:09;101653.88;;;14.39;61.26
70976;BME280;58635;51.198;6.010;2023-04-29T07:23:35;101656.69;;;14.38;61.24
70976;BME280;58635;51.198;6.010;2023-04-29T07:26:13;101662.88;;;14.37;61.27
70976;BME280;58635;51.198;6.010;2023-04-29T07:28:40;101663.09;;;14.35;61.07
70976;BME280;58635;51.198;6.010;2023-04-29T07:31:06;101671.69;;;14.36;61.32
70976;BME280;58635;51.198;6.010;2023-04-29T07:33:32;101674.31;;;14.36;61.13
70976;BME280;58635;51.198;6.010;2023-04-29T07:35:58;101684.50;;;14.37;61.19
70976;BME280;58635;51.198;6.010;2023-04-29T07:38:24;101687.50;;;14.41;61.16
70976;BME280;58635;51.198;6.010;2023-04-29T07:40:49;101687.31;;;14.42;61.06
70976;BME280;58635;51.198;6.010;2023-04-29T07:43:15;101687.72;;;14.39;61.25
70976;BME280;58635;51.198;6.010;2023-04-29T07:45:40;101688.72;;;14.38;60.92
70976;BME280;58635;51.198;6.010;2023-04-29T07:48:06;101695.72;;;14.38;61.21
70976;BME280;58635;51.198;6.010;2023-04-29T07:50:34;101702.34;;;14.40;61.29
70976;BME280;58635;51.198;6.010;2023-04-29T07:53:02;101691.31;;;14.38;61.15
70976;BME280;58635;51.198;6.010;2023-04-29T07:55:28;101699.72;;;14.40;61.27
70976;BME280;58635;51.198;6.010;2023-04-29T07:57:56;101702.13;;;14.42;61.15
70976;BME280;58635;51.198;6.010;2023-04-29T08:00:22;101705.19;;;14.45;61.20
70976;BME280;58635;51.198;6.010;2023-04-29T08:02:51;101699.38;;;14.50;61.12
70976;BME280;58635;51.198;6.010;2023-04-29T08:05:17;101700.59;;;14.54;61.14
70976;BME280;58635;51.198;6.010;2023-04-29T08:07:43;101694.00;;;14.58;60.92
70976;BME280;58635;51.198;6.010;2023-04-29T08:10:09;101703.41;;;14.66;61.01
70976;BME280;58635;51.198;6.010;2023-04-29T08:12:34;101702.03;;;14.76;60.97
70976;BME280;58635;51.198;6.010;2023-04-29T08:15:00;101700.06;;;14.85;60.75
70976;BME280;58635;51.198;6.010;2023-04-29T08:17:25;101703.88;;;14.96;60.45
70976;BME280;58635;51.198;6.010;2023-04-29T08:19:51;101697.47;;;15.05;60.06
70976;BME280;58635;51.198;6.010;2023-04-29T08:22:16;101707.28;;;15.16;59.84
70976;BME280;58635;51.198;6.010;2023-04-29T08:24:41;101709.28;;;15.27;59.56
70976;BME280;58635;51.198;6.010;2023-04-29T08:27:07;101703.66;;;15.37;59.23
70976;BME280;58635;51.198;6.010;2023-04-29T08:29:33;101702.44;;;15.46;58.95
70976;BME280;58635;51.198;6.010;2023-04-29T08:31:59;101702.84;;;15.56;58.71
70976;BME280;58635;51.198;6.010;2023-04-29T08:34:24;101706.84;;;15.72;58.40
70976;BME280;58635;51.198;6.010;2023-04-29T08:36:51;101720.84;;;15.91;58.13
70976;BME280;58635;51.198;6.010;2023-04-29T08:39:16;101718.16;;;16.11;57.66
70976;BME280;58635;51.198;6.010;2023-04-29T08:41:41;101720.88;;;16.29;57.10
70976;BME280;58635;51.198;6.010;2023-04-29T08:44:09;101724.03;;;16.44;56.43
70976;BME280;58635;51.198;6.010;2023-04-29T08:46:35;101725.16;;;16.61;56.10
70976;BME280;58635;51.198;6.010;2023-04-29T08:49:02;101729.47;;;16.81;55.30
70976;BME280;58635;51.198;6.010;2023-04-29T08:51:28;101727.59;;;16.94;54.92
70976;BME280;58635;51.198;6.010;2023-04-29T08:53:55;101729.50;;;17.06;54.53
70976;BME280;58635;51.198;6.010;2023-04-29T08:56:20;101733.44;;;17.15;54.59
70976;BME280;58635;51.198;6.010;2023-04-29T08:58:46;101728.81;;;17.17;54.21
70976;BME280;58635;51.198;6.010;2023-04-29T09:01:16;101735.66;;;17.18;53.88
70976;BME280;58635;51.198;6.010;2023-04-29T09:03:49;101731.63;;;17.15;53.96
70976;BME280;58635;51.198;6.010;2023-04-29T09:06:19;101734.66;;;17.12;54.14
70976;BME280;58635;51.198;6.010;2023-04-29T09:08:45;101737.94;;;17.08;54.01
70976;BME280;58635;51.198;6.010;2023-04-29T09:11:11;101742.41;;;17.01;53.76
70976;BME280;58635;51.198;6.010;2023-04-29T09:13:38;101738.25;;;16.93;53.96
70976;BME280;58635;51.198;6.010;2023-04-29T09:16:03;101743.72;;;16.85;53.67
70976;BME280;58635;51.198;6.010;2023-04-29T09:21:22;101742.38;;;16.76;53.90
70976;BME280;58635;51.198;6.010;2023-04-29T09:23:54;101744.38;;;16.74;53.81
70976;BME280;58635;51.198;6.010;2023-04-29T09:26:21;101741.56;;;16.75;53.98
70976;BME280;58635;51.198;6.010;2023-04-29T09:28:48;101751.00;;;16.76;53.69
70976;BME280;58635;51.198;6.010;2023-04-29T09:31:29;101748.97;;;16.78;53.99
70976;BME280;58635;51.198;6.010;2023-04-29T09:33:56;101756.81;;;16.78;53.73
70976;BME280;58635;51.198;6.010;2023-04-29T09:39:14;101756.06;;;16.71;53.62
70976;BME280;58635;51.198;6.010;2023-04-29T09:44:17;101765.13;;;16.62;53.90
70976;BME280;58635;51.198;6.010;2023-04-29T09:46:42;101771.16;;;16.56;54.14
70976;BME280;58635;51.198;6.010;2023-04-29T09:49:23;101778.84;;;16.51;54.23
70976;BME280;58635;51.198;6.010;2023-04-29T09:51:57;101776.22;;;16.51;54.03
70976;BME280;58635;51.198;6.010;2023-04-29T09:54:23;101781.47;;;16.44;54.35
70976;BME280;58635;51.198;6.010;2023-04-29T09:56:51;101775.44;;;16.50;54.20
70976;BME280;58635;51.198;6.010;2023-04-29T09:59:20;101775.38;;;16.57;54.13
70976;BME280;58635;51.198;6.010;2023-04-29T10:01:47;101780.16;;;16.66;54.04
70976;BME280;58635;51.198;6.010;2023-04-29T10:04:15;101781.56;;;16.76;53.64
70976;BME280;58635;51.198;6.010;2023-04-29T10:06:41;101783.13;;;16.83;53.43
70976;BME280;58635;51.198;6.010;2023-04-29T10:09:12;101782.69;;;16.86;53.35
70976;BME280;58635;51.198;6.010;2023-04-29T10:11:40;101789.31;;;16.89;53.53
70976;BME280;58635;51.198;6.010;2023-04-29T10:14:06;101780.25;;;16.91;53.36
70976;BME280;58635;51.198;6.010;2023-04-29T10:16:41;101789.88;;;16.98;53.41
70976;BME280;58635;51.198;6.010;2023-04-29T10:19:11;101793.66;;;17.02;52.94
70976;BME280;58635;51.198;6.010;2023-04-29T10:21:39;101796.06;;;17.03;53.32
70976;BME280;58635;51.198;6.010;2023-04-29T10:24:05;101790.81;;;17.03;53.20
70976;BME280;58635;51.198;6.010;2023-04-29T10:26:32;101802.28;;;17.02;52.82
70976;BME280;58635;51.198;6.010;2023-04-29T10:28:58;101798.06;;;17.01;53.24
70976;BME280;58635;51.198;6.010;2023-04-29T10:31:25;101798.88;;;17.02;53.25
70976;BME280;58635;51.198;6.010;2023-04-29T10:33:54;101793.66;;;17.02;53.08
70976;BME280;58635;51.198;6.010;2023-04-29T10:36:21;101794.06;;;17.05;53.01
70976;BME280;58635;51.198;6.010;2023-04-29T10:38:50;101798.78;;;17.15;52.83
70976;BME280;58635;51.198;6.010;2023-04-29T10:41:22;101799.66;;;17.34;52.38
70976;BME280;58635;51.198;6.010;2023-04-29T10:43:53;101805.81;;;17.46;52.32
70976;BME280;58635;51.198;6.010;2023-04-29T10:46:23;101807.72;;;17.57;52.00
70976;BME280;58635;51.198;6.010;2023-04-29T10:48:56;101802.63;;;17.62;52.33
70976;BME280;58635;51.198;6.010;2023-04-29T10:51:31;101814.06;;;17.68;51.82
70976;BME280;58635;51.198;6.010;2023-04-29T10:54:08;101803.41;;;17.69;51.76
70976;BME280;58635;51.198;6.010;2023-04-29T10:56:52;101809.00;;;17.73;51.34
70976;BME280;58635;51.198;6.010;2023-04-29T10:59:22;101816.03;;;17.79;51.21
70976;BME280;58635;51.198;6.010;2023-04-29T11:02:06;101814.34;;;17.85;50.92
70976;BME280;58635;51.198;6.010;2023-04-29T11:04:32;101809.28;;;17.90;50.90
70976;BME280;58635;51.198;6.010;2023-04-29T11:06:57;101809.06;;;17.91;50.80
70976;BME280;58635;51.198;6.010;2023-04-29T11:09:29;101809.63;;;17.93;50.89
70976;BME280;58635;51.198;6.010;2023-04-29T11:11:56;101807.00;;;17.93;51.01
70976;BME280;58635;51.198;6.010;2023-04-29T11:17:02;101814.22;;;17.98;50.61
70976;BME280;58635;51.198;6.010;2023-04-29T11:19:41;101812.34;;;18.05;50.28
70976;BME280;58635;51.198;6.010;2023-04-29T11:25:15;101812.13;;;18.06;50.49
70976;BME280;58635;51.198;6.010;2023-04-29T11:27:41;101811.88;;;18.08;50.47
70976;BME280;58635;51.198;6.010;2023-04-29T11:30:08;101804.19;;;18.13;50.31
70976;BME280;58635;51.198;6.010;2023-04-29T11:32:39;101809.94;;;18.22;50.07
70976;BME280;58635;51.198;6.010;2023-04-29T11:35:13;101808.97;;;18.34;49.82
70976;BME280;58635;51.198;6.010;2023-04-29T11:37:40;101815.75;;;18.42;49.58
70976;BME280;58635;51.198;6.010;2023-04-29T11:40:06;101809.97;;;18.52;49.28
70976;BME280;58635;51.198;6.010;2023-04-29T11:42:36;101821.47;;;18.69;49.12
70976;BME280;58635;51.198;6.010;2023-04-29T11:45:05;101811.97;;;18.86;49.24
70976;BME280;58635;51.198;6.010;2023-04-29T11:47:30;101814.53;;;19.05;48.51
70976;BME280;58635;51.198;6.010;2023-04-29T11:50:06;101821.06;;;19.14;48.16
70976;BME280;58635;51.198;6.010;2023-04-29T11:52:34;101819.13;;;19.21;47.89
70976;BME280;58635;51.198;6.010;2023-04-29T11:55:01;101822.22;;;19.29;47.79
70976;BME280;58635;51.198;6.010;2023-04-29T11:57:27;101821.66;;;19.39;47.40
70976;BME280;58635;51.198;6.010;2023-04-29T11:59:53;101824.88;;;19.53;47.31
70976;BME280;58635;51.198;6.010;2023-04-29T12:02:28;101813.84;;;19.63;47.04
70976;BME280;58635;51.198;6.010;2023-04-29T12:04:53;101816.38;;;19.69;46.78
70976;BME280;58635;51.198;6.010;2023-04-29T12:07:19;101815.19;;;19.77;46.76
70976;BME280;58635;51.198;6.010;2023-04-29T12:09:45;101814.88;;;19.85;46.37
70976;BME280;58635;51.198;6.010;2023-04-29T12:12:12;101824.56;;;19.96;46.11
70976;BME280;58635;51.198;6.010;2023-04-29T12:14:39;101823.75;;;20.07;46.08
70976;BME280;58635;51.198;6.010;2023-04-29T12:17:05;101815.38;;;20.22;45.75
70976;BME280;58635;51.198;6.010;2023-04-29T12:19:31;101820.16;;;20.37;45.65
70976;BME280;58635;51.198;6.010;2023-04-29T12:21:58;101816.81;;;20.53;45.33
70976;BME280;58635;51.198;6.010;2023-04-29T12:24:24;101811.34;;;20.71;45.13
70976;BME280;58635;51.198;6.010;2023-04-29T12:26:49;101809.88;;;20.92;44.74
70976;BME280;58635;51.198;6.010;2023-04-29T12:29:15;101808.78;;;21.05;44.50
70976;BME280;58635;51.198;6.010;2023-04-29T12:31:41;101812.84;;;21.13;44.14
70976;BME280;58635;51.198;6.010;2023-04-29T12:34:07;101815.50;;;21.13;43.57
70976;BME280;58635;51.198;6.010;2023-04-29T12:36:33;101811.44;;;21.22;43.49
70976;BME280;58635;51.198;6.010;2023-04-29T12:38:59;101801.00;;;21.44;42.78
70976;BME280;58635;51.198;6.010;2023-04-29T12:41:40;101801.78;;;21.61;42.43
70976;BME280;58635;51.198;6.010;2023-04-29T12:44:07;101805.75;;;21.64;42.46
70976;BME280;58635;51.198;6.010;2023-04-29T12:46:39;101801.78;;;21.61;41.85
70976;BME280;58635;51.198;6.010;2023-04-29T12:49:05;101795.31;;;21.69;41.84
70976;BME280;58635;51.198;6.010;2023-04-29T12:51:32;101795.69;;;21.99;41.26
70976;BME280;58635;51.198;6.010;2023-04-29T12:54:01;101799.28;;;22.32;41.28
70976;BME280;58635;51.198;6.010;2023-04-29T12:56:30;101803.78;;;22.36;40.94
70976;BME280;58635;51.198;6.010;2023-04-29T12:59:04;101801.25;;;22.20;40.63
70976;BME280;58635;51.198;6.010;2023-04-29T13:01:30;101801.88;;;21.88;40.90
70976;BME280;58635;51.198;6.010;2023-04-29T13:03:56;101809.91;;;21.59;41.55
70976;BME280;58635;51.198;6.010;2023-04-29T13:06:21;101814.72;;;21.29;41.34
70976;BME280;58635;51.198;6.010;2023-04-29T13:08:47;101816.50;;;20.95;41.87
70976;BME280;58635;51.198;6.010;2023-04-29T13:11:13;101817.56;;;20.65;42.40
70976;BME280;58635;51.198;6.010;2023-04-29T13:13:38;101818.44;;;20.42;42.90